createdAt,value
2022-09-30T03:59:32.976Z,1002.26
2022-09-30T04:00:32.992Z,1002.32
2022-09-30T04:01:31.340Z,1002.31
2022-09-30T04:02:32.962Z,1002.34
2022-09-30T04:03:32.948Z,1002.37
2022-09-30T04:04:32.965Z,1002.35
2022-09-30T04:05:32.946Z,1002.40
2022-09-30T04:06:32.947Z,1002.40
2022-09-30T04:07:32.949Z,1002.42
2022-09-30T04:08:33.952Z,1002.41
2022-09-30T04:09:33.041Z,1002.44
2022-09-30T04:10:32.950Z,1002.44
2022-09-30T04:11:32.957Z,1002.46
2022-09-30T04:12:32.951Z,1002.48
2022-09-30T04:13:32.975Z,1002.50
2022-09-30T04:14:32.964Z,1002.50
2022-09-30T04:15:31.268Z,1002.51
2022-09-30T04:16:33.032Z,1002.55
2022-09-30T04:17:32.954Z,1002.52
2022-09-30T04:18:32.967Z,1002.47
2022-09-30T04:19:32.977Z,1002.52
2022-09-30T04:20:32.980Z,1002.50
2022-09-30T04:21:32.976Z,1002.52
2022-09-30T04:22:32.969Z,1002.52
2022-09-30T04:23:33.471Z,1002.54
2022-09-30T04:24:31.233Z,1002.57
2022-09-30T04:25:31.221Z,1002.60
2022-09-30T04:26:31.222Z,1002.56
2022-09-30T04:27:31.214Z,1002.59
2022-09-30T04:28:32.482Z,1002.62
2022-09-30T04:29:32.978Z,1002.64
2022-09-30T04:30:33.557Z,1002.64
2022-09-30T04:31:33.082Z,1002.68
2022-09-30T04:32:31.195Z,1002.70
2022-09-30T04:33:31.204Z,1002.67
2022-09-30T04:34:31.202Z,1002.70
2022-09-30T04:35:31.248Z,1002.67
2022-09-30T04:36:32.986Z,1002.64
2022-09-30T04:37:32.972Z,1002.64
2022-09-30T04:38:32.183Z,1002.64
2022-09-30T04:39:32.993Z,1002.64
2022-09-30T04:40:32.992Z,1002.63
2022-09-30T04:41:32.984Z,1002.64
2022-09-30T04:42:32.979Z,1002.65
2022-09-30T04:43:32.981Z,1002.64
2022-09-30T04:44:33.001Z,1002.65
2022-09-30T04:45:33.065Z,1002.65
2022-09-30T04:46:32.980Z,1002.69
2022-09-30T04:47:32.994Z,1002.68
2022-09-30T04:48:32.986Z,1002.69
2022-09-30T04:49:32.980Z,1002.68
2022-09-30T04:50:32.998Z,1002.71
2022-09-30T04:51:32.987Z,1002.74
2022-09-30T04:52:32.985Z,1002.75
2022-09-30T04:53:32.987Z,1002.75
2022-09-30T04:54:32.986Z,1002.79
2022-09-30T04:55:32.998Z,1002.81
2022-09-30T04:56:33.008Z,1002.82
2022-09-30T04:57:32.990Z,1002.85
2022-09-30T04:58:36.882Z,1002.87
2022-09-30T04:59:32.990Z,1002.91
2022-09-30T05:00:33.038Z,1002.93
2022-09-30T05:01:33.020Z,1002.98
2022-09-30T05:02:32.992Z,1003.00
2022-09-30T05:03:33.007Z,1002.98
2022-09-30T05:04:33.084Z,1003.00
2022-09-30T05:05:32.994Z,1003.00
2022-09-30T05:06:33.012Z,1002.98
2022-09-30T05:07:31.086Z,1003.00
2022-09-30T05:08:32.086Z,1002.97
2022-09-30T05:09:31.113Z,1002.98
2022-09-30T05:10:32.999Z,1002.98
2022-09-30T05:11:33.011Z,1003.01
2022-09-30T05:12:31.069Z,1003.05
2022-09-30T05:13:33.028Z,1003.04
2022-09-30T05:14:32.080Z,1003.05
2022-09-30T05:15:31.082Z,1003.05
2022-09-30T05:16:33.063Z,1003.07
2022-09-30T05:17:32.065Z,1003.08
2022-09-30T05:18:33.012Z,1003.03
2022-09-30T05:19:32.550Z,1003.04
2022-09-30T05:20:33.003Z,1003.03
2022-09-30T05:21:33.006Z,1003.04
2022-09-30T05:22:33.005Z,1003.04
2022-09-30T05:23:33.013Z,1003.05
2022-09-30T05:24:33.031Z,1003.05
2022-09-30T05:25:31.039Z,1002.99
2022-09-30T05:26:33.033Z,1003.04
2022-09-30T05:27:32.690Z,1003.02
2022-09-30T05:28:31.042Z,1003.02
2022-09-30T05:29:31.025Z,1003.06
2022-09-30T05:30:31.015Z,1003.04
2022-09-30T05:31:31.083Z,1003.04
2022-09-30T05:32:32.037Z,1003.09
2022-09-30T05:33:31.041Z,1003.12
2022-09-30T05:34:32.532Z,1003.14
2022-09-30T05:35:31.007Z,1003.20
2022-09-30T05:36:30.996Z,1003.18
2022-09-30T05:37:30.997Z,1003.24
2022-09-30T05:38:32.046Z,1003.21
2022-09-30T05:39:31.982Z,1003.22
2022-09-30T05:40:30.988Z,1003.23
2022-09-30T05:41:32.542Z,1003.20
2022-09-30T05:42:32.561Z,1003.24
2022-09-30T05:43:32.044Z,1003.23
2022-09-30T05:44:30.972Z,1003.20
2022-09-30T05:45:32.557Z,1003.22
2022-09-30T05:46:32.128Z,1003.21
2022-09-30T05:47:31.970Z,1003.19
2022-09-30T05:48:32.714Z,1003.18
2022-09-30T05:49:32.536Z,1003.17
2022-09-30T05:50:38.847Z,1003.15
2022-09-30T05:51:32.563Z,1003.15
2022-09-30T05:52:32.625Z,1003.14
2022-09-30T05:53:32.618Z,1003.17
2022-09-30T05:54:32.575Z,1003.17
2022-09-30T05:55:35.810Z,1003.15
2022-09-30T05:56:31.005Z,1003.17
2022-09-30T05:57:30.976Z,1003.21
2022-09-30T05:58:30.929Z,1003.20
2022-09-30T05:59:32.540Z,1003.22
2022-09-30T06:00:31.512Z,1003.24
2022-09-30T06:01:31.005Z,1003.29
2022-09-30T06:02:32.672Z,1003.28
2022-09-30T06:03:34.503Z,1003.29
2022-09-30T06:04:32.563Z,1003.32
2022-09-30T06:05:32.591Z,1003.36
2022-09-30T06:06:32.582Z,1003.34
2022-09-30T06:07:30.942Z,1003.39
2022-09-30T06:08:30.899Z,1003.37
2022-09-30T06:09:30.943Z,1003.42
2022-09-30T06:10:32.563Z,1003.44
2022-09-30T06:11:32.552Z,1003.45
2022-09-30T06:12:32.677Z,1003.42
2022-09-30T06:13:32.923Z,1003.43
2022-09-30T06:14:32.605Z,1003.46
2022-09-30T06:15:32.582Z,1003.44
2022-09-30T06:16:32.588Z,1003.49
2022-09-30T06:17:32.621Z,1003.47
2022-09-30T06:18:32.581Z,1003.50
2022-09-30T06:19:32.553Z,1003.54
2022-09-30T06:20:32.559Z,1003.52
2022-09-30T06:21:32.559Z,1003.54
2022-09-30T06:22:32.637Z,1003.55
2022-09-30T06:23:32.566Z,1003.60
2022-09-30T06:24:32.582Z,1003.55
2022-09-30T06:25:30.866Z,1003.58
2022-09-30T06:26:30.848Z,1003.58
2022-09-30T06:27:30.841Z,1003.62
2022-09-30T06:28:30.836Z,1003.59
2022-09-30T06:29:32.587Z,1003.63
2022-09-30T06:30:35.030Z,1003.60
2022-09-30T06:31:30.922Z,1003.59
2022-09-30T06:32:30.826Z,1003.61
2022-09-30T06:33:32.584Z,1003.62
2022-09-30T06:34:31.219Z,1003.60
2022-09-30T06:35:30.839Z,1003.60
2022-09-30T06:36:30.852Z,1003.61
2022-09-30T06:37:30.811Z,1003.61
2022-09-30T06:38:32.596Z,1003.63
2022-09-30T06:39:30.936Z,1003.63
2022-09-30T06:40:32.093Z,1003.63
2022-09-30T06:41:30.828Z,1003.66
2022-09-30T06:42:30.829Z,1003.68
2022-09-30T06:43:38.750Z,1003.69
2022-09-30T06:44:30.910Z,1003.75
2022-09-30T06:45:33.314Z,1003.76
2022-09-30T06:46:31.533Z,1003.78
2022-09-30T06:47:33.654Z,1003.84
2022-09-30T06:48:38.254Z,1003.84
2022-09-30T06:49:44.790Z,1003.85
2022-09-30T06:50:32.606Z,1003.87
2022-09-30T06:51:30.778Z,1003.84
2022-09-30T06:52:32.592Z,1003.83
2022-09-30T06:53:32.605Z,1003.80
2022-09-30T06:54:32.675Z,1003.78
2022-09-30T06:55:32.594Z,1003.78
2022-09-30T06:56:32.587Z,1003.75
2022-09-30T06:57:32.632Z,1003.74
2022-09-30T06:58:32.606Z,1003.74
2022-09-30T06:59:32.595Z,1003.76
2022-09-30T07:00:32.658Z,1003.74
2022-09-30T07:01:32.590Z,1003.73
2022-09-30T07:02:32.662Z,1003.73
2022-09-30T07:03:32.625Z,1003.74
2022-09-30T07:04:32.615Z,1003.74
2022-09-30T07:05:32.595Z,1003.76
2022-09-30T07:06:32.615Z,1003.75
2022-09-30T07:07:31.739Z,1003.73
2022-09-30T07:08:30.773Z,1003.79
2022-09-30T07:09:30.810Z,1003.75
2022-09-30T07:10:32.621Z,1003.75
2022-09-30T07:11:31.742Z,1003.77
2022-09-30T07:12:32.661Z,1003.79
2022-09-30T07:13:32.626Z,1003.76
2022-09-30T07:14:32.695Z,1003.78
2022-09-30T07:15:32.622Z,1003.81
2022-09-30T07:16:32.637Z,1003.83
2022-09-30T07:17:32.632Z,1003.81
2022-09-30T07:18:32.670Z,1003.80
2022-09-30T07:19:32.642Z,1003.82
2022-09-30T07:20:32.609Z,1003.82
2022-09-30T07:21:32.660Z,1003.83
2022-09-30T07:22:32.612Z,1003.87
2022-09-30T07:23:32.632Z,1003.84
2022-09-30T07:24:32.639Z,1003.85
2022-09-30T07:25:32.719Z,1003.84
2022-09-30T07:26:32.678Z,1003.83
2022-09-30T07:27:32.635Z,1003.83
2022-09-30T07:28:32.666Z,1003.83
2022-09-30T07:29:44.612Z,1003.83
2022-09-30T07:30:30.730Z,1003.82
2022-09-30T07:31:36.694Z,1003.81
2022-09-30T07:32:36.781Z,1003.82
2022-09-30T07:33:31.903Z,1003.85
2022-09-30T07:34:30.908Z,1003.86
2022-09-30T07:35:34.742Z,1003.84
2022-09-30T07:36:33.225Z,1003.85
2022-09-30T07:37:33.274Z,1003.87
2022-09-30T07:38:35.154Z,1003.83
2022-09-30T07:39:30.677Z,1003.86
2022-09-30T07:40:32.649Z,1003.87
2022-09-30T07:41:30.673Z,1003.92
2022-09-30T07:42:33.725Z,1003.93
2022-09-30T07:43:32.835Z,1003.98
2022-09-30T07:44:30.703Z,1003.96
2022-09-30T07:45:32.728Z,1003.98
2022-09-30T07:46:30.830Z,1003.96
2022-09-30T07:47:36.379Z,1004.01
2022-09-30T07:48:30.812Z,1004.01
2022-09-30T07:49:30.663Z,1004.04
2022-09-30T07:50:32.647Z,1004.01
2022-09-30T07:51:30.716Z,1004.02
2022-09-30T07:52:30.676Z,1004.05
2022-09-30T07:53:30.722Z,1004.03
2022-09-30T07:54:30.897Z,1004.04
2022-09-30T07:55:36.759Z,1004.04
2022-09-30T07:57:37.379Z,1004.07
2022-09-30T07:58:30.647Z,1004.13
2022-09-30T07:59:33.180Z,1004.12
2022-09-30T08:00:42.144Z,1004.11
2022-09-30T08:02:33.261Z,1004.16
2022-09-30T08:03:32.232Z,1004.17
2022-09-30T08:04:31.242Z,1004.15
2022-09-30T08:05:30.667Z,1004.14
2022-09-30T08:06:32.237Z,1004.16
2022-09-30T08:07:30.640Z,1004.16
2022-09-30T08:08:32.180Z,1004.19
2022-09-30T08:09:30.977Z,1004.16
2022-09-30T08:10:30.641Z,1004.17
2022-09-30T08:11:31.672Z,1004.18
2022-09-30T08:12:30.743Z,1004.22
2022-09-30T08:13:31.247Z,1004.19
2022-09-30T08:14:33.326Z,1004.16
2022-09-30T08:15:30.651Z,1004.13
2022-09-30T08:16:32.250Z,1004.16
2022-09-30T08:17:37.173Z,1004.14
2022-09-30T08:18:38.221Z,1004.16
2022-09-30T08:19:32.252Z,1004.15
2022-09-30T08:20:30.785Z,1004.16
2022-09-30T08:21:33.197Z,1004.12
2022-09-30T08:22:33.861Z,1004.13
2022-09-30T08:23:30.636Z,1004.14
2022-09-30T08:24:30.745Z,1004.15
2022-09-30T08:25:30.628Z,1004.17
2022-09-30T08:26:38.317Z,1004.17
2022-09-30T08:27:30.841Z,1004.19
2022-09-30T08:28:36.362Z,1004.20
2022-09-30T08:29:57.373Z,1004.21
2022-09-30T08:30:30.631Z,1004.24
2022-09-30T08:31:32.418Z,1004.27
2022-09-30T08:32:32.182Z,1004.26
2022-09-30T08:33:32.184Z,1004.26
2022-09-30T08:35:32.285Z,1004.23
2022-09-30T08:36:30.613Z,1004.27
2022-09-30T08:37:30.613Z,1004.25
2022-09-30T08:38:30.655Z,1004.27
2022-09-30T08:39:32.181Z,1004.26
2022-09-30T08:40:32.182Z,1004.25
2022-09-30T08:41:32.211Z,1004.24
2022-09-30T08:42:40.302Z,1004.24
2022-09-30T08:43:30.633Z,1004.24
2022-09-30T08:44:31.695Z,1004.28
2022-09-30T08:45:31.671Z,1004.29
2022-09-30T08:46:32.198Z,1004.28
2022-09-30T08:47:32.199Z,1004.31
2022-09-30T08:48:30.658Z,1004.31
2022-09-30T08:49:32.190Z,1004.33
2022-09-30T08:50:32.205Z,1004.32
2022-09-30T08:51:32.233Z,1004.31
2022-09-30T08:52:47.985Z,1004.31
2022-09-30T08:53:33.225Z,1004.34
2022-09-30T08:54:34.535Z,1004.31
2022-09-30T08:55:32.230Z,1004.33
2022-09-30T08:56:31.107Z,1004.30
2022-09-30T08:57:32.086Z,1004.31
2022-09-30T08:58:32.298Z,1004.25
2022-09-30T08:59:31.653Z,1004.29
2022-09-30T09:00:32.515Z,1004.31
2022-09-30T09:01:32.307Z,1004.29
2022-09-30T09:02:32.452Z,1004.27
2022-09-30T09:03:32.216Z,1004.29
2022-09-30T09:04:32.265Z,1004.33
2022-09-30T09:05:32.262Z,1004.30
2022-09-30T09:06:32.240Z,1004.30
2022-09-30T09:07:32.228Z,1004.32
2022-09-30T09:08:32.246Z,1004.32
2022-09-30T09:09:32.223Z,1004.32
2022-09-30T09:10:30.714Z,1004.31
2022-09-30T09:11:30.597Z,1004.28
2022-09-30T09:12:30.597Z,1004.33
2022-09-30T09:13:32.270Z,1004.32
2022-09-30T09:14:30.600Z,1004.34
2022-09-30T09:15:30.661Z,1004.35
2022-09-30T09:16:30.683Z,1004.34
2022-09-30T09:17:30.933Z,1004.36
2022-09-30T09:18:32.295Z,1004.34
2022-09-30T09:19:32.219Z,1004.33
2022-09-30T09:20:32.258Z,1004.38
2022-09-30T09:21:34.048Z,1004.37
2022-09-30T09:22:32.264Z,1004.39
2022-09-30T09:23:32.219Z,1004.36
2022-09-30T09:24:33.144Z,1004.36
2022-09-30T09:25:40.679Z,1004.38
2022-09-30T09:26:31.081Z,1004.38
2022-09-30T09:28:33.201Z,1004.39
2022-09-30T09:29:33.986Z,1004.42
2022-09-30T09:30:31.000Z,1004.39
2022-09-30T09:31:32.408Z,1004.43
2022-09-30T09:32:30.618Z,1004.42
2022-09-30T09:33:33.642Z,1004.38
2022-09-30T09:34:30.645Z,1004.37
2022-09-30T09:35:31.506Z,1004.40
2022-09-30T09:36:34.353Z,1004.38
2022-09-30T09:37:32.411Z,1004.40
2022-09-30T09:38:30.727Z,1004.41
2022-09-30T09:39:30.626Z,1004.39
2022-09-30T09:40:30.614Z,1004.39
2022-09-30T09:41:32.309Z,1004.42
2022-09-30T09:42:30.714Z,1004.40
2022-09-30T09:43:31.922Z,1004.39
2022-09-30T09:44:30.734Z,1004.36
2022-09-30T09:45:33.494Z,1004.39
2022-09-30T09:46:30.827Z,1004.37
2022-09-30T09:47:31.179Z,1004.37
2022-09-30T09:48:30.769Z,1004.40
2022-09-30T09:49:31.880Z,1004.38
2022-09-30T09:50:33.280Z,1004.36
2022-09-30T09:51:30.696Z,1004.31
2022-09-30T09:52:32.728Z,1004.30
2022-09-30T09:53:32.434Z,1004.28
2022-09-30T09:54:30.797Z,1004.29
2022-09-30T09:55:32.376Z,1004.29
2022-09-30T09:56:32.470Z,1004.33
2022-09-30T09:57:32.501Z,1004.35
2022-09-30T09:58:30.737Z,1004.38
2022-09-30T09:59:32.342Z,1004.36
2022-09-30T10:00:32.314Z,1004.42
2022-09-30T10:02:46.448Z,1004.41
2022-09-30T10:13:47.737Z,1004.47
2022-09-30T10:14:47.719Z,1004.45
2022-09-30T10:15:47.247Z,1004.45
2022-09-30T10:16:46.993Z,1004.43
2022-09-30T10:17:47.712Z,1004.43
2022-09-30T10:18:47.714Z,1004.41
2022-09-30T10:19:47.742Z,1004.35
2022-09-30T10:20:47.744Z,1004.39
2022-09-30T10:21:47.713Z,1004.39
2022-09-30T10:22:47.733Z,1004.40
2022-09-30T10:23:47.747Z,1004.40
2022-09-30T10:24:47.795Z,1004.41
2022-09-30T10:25:47.738Z,1004.42
2022-09-30T10:26:49.121Z,1004.45
2022-09-30T10:27:47.883Z,1004.38
2022-09-30T10:28:47.777Z,1004.36
2022-09-30T10:29:46.136Z,1004.36
2022-09-30T10:30:49.179Z,1004.33
2022-09-30T10:31:46.208Z,1004.36
2022-09-30T10:32:47.745Z,1004.33
2022-09-30T10:33:46.066Z,1004.40
2022-09-30T10:34:45.991Z,1004.36
2022-09-30T10:35:47.823Z,1004.41
2022-09-30T10:36:46.818Z,1004.36
2022-09-30T10:37:50.864Z,1004.40
2022-09-30T10:38:45.994Z,1004.40
2022-09-30T10:39:47.753Z,1004.38
2022-09-30T10:40:46.071Z,1004.36
2022-09-30T10:41:47.771Z,1004.37
2022-09-30T10:42:45.980Z,1004.45
2022-09-30T10:43:47.749Z,1004.42
2022-09-30T10:44:47.748Z,1004.36
2022-09-30T10:46:01.485Z,1004.38
2022-09-30T10:46:46.085Z,1004.36
2022-09-30T10:47:47.788Z,1004.38
2022-09-30T10:48:46.023Z,1004.36
2022-09-30T10:49:47.747Z,1004.39
2022-09-30T10:50:47.789Z,1004.37
2022-09-30T10:51:47.873Z,1004.35
2022-09-30T10:52:46.013Z,1004.34
2022-09-30T10:53:47.745Z,1004.30
2022-09-30T10:54:47.763Z,1004.31
2022-09-30T10:55:47.763Z,1004.31
2022-09-30T10:56:47.756Z,1004.34
2022-09-30T10:57:47.751Z,1004.32
2022-09-30T10:58:47.853Z,1004.33
2022-09-30T10:59:47.759Z,1004.29
2022-09-30T11:00:47.823Z,1004.30
2022-09-30T11:01:47.823Z,1004.34
2022-09-30T11:02:49.445Z,1004.31
2022-09-30T11:03:47.832Z,1004.28
2022-09-30T11:04:47.782Z,1004.29
2022-09-30T11:06:47.792Z,1004.26
2022-09-30T11:07:47.767Z,1004.33
2022-09-30T11:08:47.773Z,1004.26
2022-09-30T11:09:47.779Z,1004.27
2022-09-30T11:10:47.764Z,1004.26
2022-09-30T11:11:47.799Z,1004.25
2022-09-30T11:12:47.769Z,1004.22
2022-09-30T11:13:47.848Z,1004.21
2022-09-30T11:14:47.914Z,1004.22
2022-09-30T11:15:57.805Z,1004.22
2022-09-30T11:16:48.235Z,1004.18
2022-09-30T11:17:59.776Z,1004.18
2022-09-30T11:18:50.633Z,1004.22
2022-09-30T11:19:46.218Z,1004.20
2022-09-30T11:20:50.572Z,1004.21
2022-09-30T11:21:47.844Z,1004.21
2022-09-30T11:22:46.089Z,1004.19
2022-09-30T11:23:46.116Z,1004.23
2022-09-30T11:24:46.113Z,1004.31
2022-09-30T11:25:47.796Z,1004.28
2022-09-30T11:26:46.096Z,1004.28
2022-09-30T11:27:46.125Z,1004.32
2022-09-30T11:28:47.787Z,1004.36
2022-09-30T11:29:46.109Z,1004.35
2022-09-30T11:30:47.803Z,1004.33
2022-09-30T11:31:46.262Z,1004.32
2022-09-30T11:32:46.123Z,1004.33
2022-09-30T11:33:47.803Z,1004.38
2022-09-30T11:34:47.804Z,1004.31
2022-09-30T11:35:47.806Z,1004.28
2022-09-30T11:36:48.860Z,1004.30
2022-09-30T11:37:46.125Z,1004.31
2022-09-30T11:38:46.134Z,1004.31
2022-09-30T11:39:47.810Z,1004.27
2022-09-30T11:40:47.801Z,1004.24
2022-09-30T11:41:46.151Z,1004.21
2022-09-30T11:42:46.150Z,1004.24
2022-09-30T11:43:47.815Z,1004.26
2022-09-30T11:44:46.155Z,1004.28
2022-09-30T11:45:46.221Z,1004.28
2022-09-30T11:46:47.822Z,1004.27
2022-09-30T11:47:46.168Z,1004.31
2022-09-30T11:48:47.826Z,1004.28
2022-09-30T11:49:46.190Z,1004.27
2022-09-30T11:50:46.189Z,1004.27
2022-09-30T11:51:47.824Z,1004.25
2022-09-30T11:52:47.818Z,1004.23
2022-09-30T11:53:47.818Z,1004.25
2022-09-30T11:54:46.203Z,1004.29
2022-09-30T11:55:47.207Z,1004.29
2022-09-30T11:56:47.834Z,1004.27
2022-09-30T11:57:47.818Z,1004.26
2022-09-30T11:58:47.853Z,1004.28
2022-09-30T11:59:47.849Z,1004.26
2022-09-30T12:00:47.824Z,1004.26
2022-09-30T12:01:47.858Z,1004.22
2022-09-30T12:02:47.923Z,1004.22
2022-09-30T12:03:47.824Z,1004.24
2022-09-30T12:04:47.837Z,1004.21
2022-09-30T12:05:47.840Z,1004.20
2022-09-30T12:06:47.839Z,1004.27
2022-09-30T12:07:47.842Z,1004.25
2022-09-30T12:08:47.852Z,1004.24
2022-09-30T12:09:47.848Z,1004.27
2022-09-30T12:10:47.833Z,1004.26
2022-09-30T12:11:47.834Z,1004.26
2022-09-30T12:12:47.858Z,1004.29
2022-09-30T12:13:47.840Z,1004.29
2022-09-30T12:14:47.859Z,1004.28
2022-09-30T12:15:47.842Z,1004.30
2022-09-30T12:16:48.006Z,1004.30
2022-09-30T12:17:46.304Z,1004.26
2022-09-30T12:18:47.322Z,1004.25
2022-09-30T12:19:46.319Z,1004.23
2022-09-30T12:20:47.878Z,1004.21
2022-09-30T12:21:46.340Z,1004.23
2022-09-30T12:22:46.323Z,1004.22
2022-09-30T12:23:47.864Z,1004.21
2022-09-30T12:24:47.850Z,1004.17
2022-09-30T12:25:47.872Z,1004.15
2022-09-30T12:26:47.851Z,1004.11
2022-09-30T12:27:47.892Z,1004.12
2022-09-30T12:28:47.870Z,1004.16
2022-09-30T12:29:47.868Z,1004.19
2022-09-30T12:30:47.864Z,1004.17
2022-09-30T12:31:46.409Z,1004.14
2022-09-30T12:32:48.359Z,1004.15
2022-09-30T12:33:47.874Z,1004.09
2022-09-30T12:34:48.363Z,1004.11
2022-09-30T12:35:48.362Z,1004.17
2022-09-30T12:36:48.363Z,1004.15
2022-09-30T12:37:46.400Z,1004.09
2022-09-30T12:38:48.391Z,1004.09
2022-09-30T12:39:48.376Z,1004.09
2022-09-30T12:40:52.321Z,1004.07
2022-09-30T12:41:48.379Z,1004.06
2022-09-30T12:42:48.371Z,1004.09
2022-09-30T12:43:48.372Z,1004.02
2022-09-30T12:44:48.388Z,1003.99
2022-09-30T12:45:48.467Z,1003.99
2022-09-30T12:46:48.380Z,1003.90
2022-09-30T12:47:48.396Z,1003.92
2022-09-30T12:48:46.451Z,1003.89
2022-09-30T12:49:46.476Z,1003.90
2022-09-30T12:50:46.470Z,1003.90
2022-09-30T12:51:48.398Z,1003.93
2022-09-30T12:52:46.469Z,1003.85
2022-09-30T12:53:46.484Z,1003.85
2022-09-30T12:54:46.483Z,1003.82
2022-09-30T12:55:46.496Z,1003.82
2022-09-30T12:56:48.399Z,1003.86
2022-09-30T12:57:46.500Z,1003.88
2022-09-30T12:58:46.511Z,1003.87
2022-09-30T12:59:47.423Z,1003.84
2022-09-30T13:00:47.453Z,1003.83
2022-09-30T13:01:46.595Z,1003.85
2022-09-30T13:02:48.396Z,1003.86
2022-09-30T13:03:46.539Z,1003.81
2022-09-30T13:04:48.419Z,1003.81
2022-09-30T13:05:48.414Z,1003.78
2022-09-30T13:06:48.400Z,1003.79
2022-09-30T13:07:48.413Z,1003.80
2022-09-30T13:08:48.413Z,1003.80
2022-09-30T13:09:46.644Z,1003.73
2022-09-30T13:10:48.405Z,1003.73
2022-09-30T13:11:46.594Z,1003.77
2022-09-30T13:12:46.598Z,1003.73
2022-09-30T13:13:48.442Z,1003.72
2022-09-30T13:14:46.604Z,1003.75
2022-09-30T13:15:48.435Z,1003.76
2022-09-30T13:16:46.643Z,1003.72
2022-09-30T13:17:46.732Z,1003.72
2022-09-30T13:18:46.963Z,1003.71
2022-09-30T13:19:48.431Z,1003.70
2022-09-30T13:20:48.437Z,1003.67
2022-09-30T13:21:52.214Z,1003.69
2022-09-30T13:22:46.687Z,1003.63
2022-09-30T13:23:48.424Z,1003.62
2022-09-30T13:24:46.666Z,1003.66
2022-09-30T13:25:46.680Z,1003.67
2022-09-30T13:26:48.434Z,1003.67
2022-09-30T13:27:48.482Z,1003.68
2022-09-30T13:28:48.426Z,1003.63
2022-09-30T13:29:48.436Z,1003.58
2022-09-30T13:30:48.508Z,1003.53
2022-09-30T13:31:48.759Z,1003.55
2022-09-30T13:32:48.439Z,1003.59
2022-09-30T13:33:48.433Z,1003.53
2022-09-30T13:34:48.434Z,1003.51
2022-09-30T13:35:48.446Z,1003.51
2022-09-30T13:36:48.435Z,1003.47
2022-09-30T13:37:48.438Z,1003.49
2022-09-30T13:38:48.443Z,1003.52
2022-09-30T13:39:48.442Z,1003.52
2022-09-30T13:41:03.942Z,1003.48
2022-09-30T13:41:48.466Z,1003.51
2022-09-30T13:42:48.460Z,1003.47
2022-09-30T13:43:46.789Z,1003.50
2022-09-30T13:44:46.796Z,1003.47
2022-09-30T13:45:48.524Z,1003.46
2022-09-30T13:46:46.810Z,1003.44
2022-09-30T13:47:46.819Z,1003.39
2022-09-30T13:48:46.819Z,1003.44
2022-09-30T13:49:48.463Z,1003.46
2022-09-30T13:50:46.834Z,1003.49
2022-09-30T13:51:46.861Z,1003.49
2022-09-30T13:52:48.471Z,1003.45
2022-09-30T13:53:46.850Z,1003.46
2022-09-30T13:54:46.861Z,1003.41
2022-09-30T13:55:46.862Z,1003.45
2022-09-30T13:56:48.472Z,1003.45
2022-09-30T13:57:46.883Z,1003.44
2022-09-30T13:58:48.466Z,1003.43
2022-09-30T13:59:48.470Z,1003.41
2022-09-30T14:00:48.591Z,1003.40
2022-09-30T14:01:48.469Z,1003.41
2022-09-30T14:02:48.480Z,1003.37
2022-09-30T14:03:48.517Z,1003.31
2022-09-30T14:04:48.485Z,1003.40
2022-09-30T14:05:48.471Z,1003.34
2022-09-30T14:06:48.474Z,1003.36
2022-09-30T14:07:48.488Z,1003.36
2022-09-30T14:08:48.489Z,1003.44
2022-09-30T14:09:48.490Z,1003.38
2022-09-30T14:10:48.491Z,1003.39
2022-09-30T14:11:48.481Z,1003.37
2022-09-30T14:12:48.517Z,1003.38
2022-09-30T14:13:48.487Z,1003.43
2022-09-30T14:14:48.511Z,1003.37
2022-09-30T14:15:48.550Z,1003.38
2022-09-30T14:16:48.483Z,1003.42
2022-09-30T14:17:48.486Z,1003.39
2022-09-30T14:18:48.494Z,1003.39
2022-09-30T14:19:48.991Z,1003.35
2022-09-30T14:20:48.504Z,1003.38
2022-09-30T14:21:48.986Z,1003.35
2022-09-30T14:22:48.993Z,1003.35
2022-09-30T14:23:48.999Z,1003.39
2022-09-30T14:24:48.994Z,1003.34
2022-09-30T14:25:49.026Z,1003.32
2022-09-30T14:26:48.995Z,1003.35
2022-09-30T14:27:49.095Z,1003.33
2022-09-30T14:28:47.055Z,1003.31
2022-09-30T14:29:48.040Z,1003.32
2022-09-30T14:30:50.645Z,1003.32
2022-09-30T14:31:47.101Z,1003.33
2022-09-30T14:32:47.051Z,1003.29
2022-09-30T14:33:48.053Z,1003.31
2022-09-30T14:34:47.072Z,1003.26
2022-09-30T14:35:49.018Z,1003.31
2022-09-30T14:36:47.068Z,1003.29
2022-09-30T14:37:49.023Z,1003.30
2022-09-30T14:38:47.075Z,1003.24
2022-09-30T14:39:47.098Z,1003.22
2022-09-30T14:40:48.090Z,1003.27
2022-09-30T14:41:49.027Z,1003.22
2022-09-30T14:42:49.030Z,1003.26
2022-09-30T14:43:48.093Z,1003.25
2022-09-30T14:44:49.059Z,1003.26
2022-09-30T14:45:49.097Z,1003.27
2022-09-30T14:46:47.111Z,1003.26
2022-09-30T14:47:49.019Z,1003.26
2022-09-30T14:48:47.117Z,1003.24
2022-09-30T14:49:49.035Z,1003.24
2022-09-30T14:50:49.028Z,1003.22
2022-09-30T14:51:47.186Z,1003.24
2022-09-30T14:52:48.138Z,1003.19
2022-09-30T14:53:47.140Z,1003.16
2022-09-30T14:54:48.539Z,1003.16
2022-09-30T14:55:47.151Z,1003.16
2022-09-30T14:56:47.143Z,1003.19
2022-09-30T14:57:48.542Z,1003.18
2022-09-30T14:58:47.152Z,1003.19
2022-09-30T14:59:48.153Z,1003.21
2022-09-30T15:00:49.080Z,1003.22
2022-09-30T15:01:49.049Z,1003.19
2022-09-30T15:02:49.040Z,1003.19
2022-09-30T15:03:49.083Z,1003.19
2022-09-30T15:04:49.099Z,1003.20
2022-09-30T15:05:49.082Z,1003.21
2022-09-30T15:06:49.044Z,1003.15
2022-09-30T15:07:49.058Z,1003.19
2022-09-30T15:08:49.058Z,1003.19
2022-09-30T15:09:49.053Z,1003.16
2022-09-30T15:10:49.048Z,1003.19
2022-09-30T15:11:49.058Z,1003.11
2022-09-30T15:12:49.092Z,1003.09
2022-09-30T15:13:49.047Z,1003.09
2022-09-30T15:14:49.093Z,1003.08
2022-09-30T15:15:49.179Z,1003.08
2022-09-30T15:16:49.086Z,1003.08
2022-09-30T15:17:49.071Z,1003.07
2022-09-30T15:18:49.069Z,1003.12
2022-09-30T15:19:49.056Z,1003.09
2022-09-30T15:20:49.071Z,1003.06
2022-09-30T15:21:49.058Z,1003.07
2022-09-30T15:22:49.067Z,1003.05
2022-09-30T15:23:49.080Z,1003.07
2022-09-30T15:24:49.095Z,1003.02
2022-09-30T15:25:49.060Z,1003.05
2022-09-30T15:26:49.070Z,1003.06
2022-09-30T15:27:49.101Z,1003.01
2022-09-30T15:28:49.067Z,1003.03
2022-09-30T15:29:49.101Z,1003.00
2022-09-30T15:30:48.581Z,1003.03
2022-09-30T15:31:47.293Z,1003.03
2022-09-30T15:32:50.412Z,1003.04
2022-09-30T15:33:49.069Z,1003.00
2022-09-30T15:34:48.228Z,1002.99
2022-09-30T15:35:49.096Z,1003.02
2022-09-30T15:36:49.073Z,1003.03
2022-09-30T15:37:49.075Z,1003.04
2022-09-30T15:38:49.071Z,1003.04
2022-09-30T15:39:49.107Z,1003.03
2022-09-30T15:40:49.080Z,1003.08
2022-09-30T15:41:49.076Z,1003.03
2022-09-30T15:42:49.080Z,1003.09
2022-09-30T15:43:49.082Z,1003.09
2022-09-30T15:44:49.105Z,1003.06
2022-09-30T15:45:49.319Z,1003.07
2022-09-30T15:46:49.081Z,1003.08
2022-09-30T15:47:49.084Z,1003.09
2022-09-30T15:48:49.098Z,1003.08
2022-09-30T15:49:49.090Z,1003.09
2022-09-30T15:50:49.108Z,1003.06
2022-09-30T15:51:49.086Z,1003.09
2022-09-30T15:52:49.126Z,1003.10
2022-09-30T15:53:49.091Z,1003.13
2022-09-30T15:54:49.089Z,1003.10
2022-09-30T15:55:47.237Z,1003.10
2022-09-30T15:56:49.111Z,1003.08
2022-09-30T15:57:47.228Z,1003.07
2022-09-30T15:58:49.090Z,1003.06
2022-09-30T15:59:48.616Z,1003.09
2022-09-30T16:00:47.319Z,1003.05
2022-09-30T16:12:48.363Z,1003.16
2022-09-30T16:13:47.680Z,1003.15
2022-09-30T16:14:46.719Z,1003.13
2022-09-30T16:15:48.303Z,1003.15
2022-09-30T16:16:48.364Z,1003.17
2022-09-30T16:17:47.674Z,1003.19
2022-09-30T16:18:48.346Z,1003.15
2022-09-30T16:19:47.812Z,1003.15
2022-09-30T16:20:48.298Z,1003.16
2022-09-30T16:21:48.299Z,1003.14
2022-09-30T16:22:48.302Z,1003.15
2022-09-30T16:23:48.313Z,1003.14
2022-09-30T16:24:48.314Z,1003.15
2022-09-30T16:25:48.304Z,1003.17
2022-09-30T16:26:48.300Z,1003.16
2022-09-30T16:27:48.375Z,1003.15
2022-09-30T16:28:48.362Z,1003.14
2022-09-30T16:29:48.306Z,1003.15
2022-09-30T16:30:48.304Z,1003.08
2022-09-30T16:31:46.792Z,1003.07